Turnersville, New Jersey
Current Conditions -  °F | °C
As of 1:54 PM on Sunday 23 Nov 2014 (Local Time) from KPHL Reporting Station
Broken Clouds Broken Clouds  
Wind Chill: 12°   Ceiling: 25000
Heat Index: 12°   Visibility: 10mi
Dew Point: -3°   Wind: 7mph
Humidity: 35%   Direction: 190°S
Pressure: 30.15"   Gusts: NA
Location:  39.778°N, 75.0552°W
Report Text: KPHL 231854Z 19006KT 10SM FEW200 BKN250 12/M03 A3015 RMK AO2 SLP210 T01171033 $
Loading
Personal Weather Stations






























Interactive Weather Map New forecast layout! Learn more

10-Day Weather Forecast

Advertisements
Track Severe Weather on mobile